createdAt,value
2019-01-14T00:04:57.400Z,7.00
2019-01-14T00:10:04.177Z,7.07
2019-01-14T00:15:10.930Z,6.87
2019-01-14T00:20:17.547Z,6.95
2019-01-14T00:25:24.326Z,6.60
2019-01-14T00:30:31.207Z,6.55
2019-01-14T00:35:37.728Z,5.86
2019-01-14T00:40:44.204Z,5.92
2019-01-14T00:45:50.481Z,5.80
2019-01-14T00:50:58.144Z,6.37
2019-01-14T00:56:04.994Z,6.31
2019-01-14T01:01:12.070Z,6.20
2019-01-14T01:06:24.650Z,6.32
2019-01-14T01:11:26.980Z,6.13
2019-01-14T01:16:34.044Z,6.18
2019-01-14T01:21:40.782Z,6.15
2019-01-14T01:26:47.853Z,6.10
2019-01-14T01:31:55.806Z,5.69
2019-01-14T01:37:05.756Z,5.92
2019-01-14T01:42:12.650Z,5.95
2019-01-14T01:47:19.250Z,5.60
2019-01-14T01:52:26.018Z,5.61
2019-01-14T01:57:32.555Z,6.05
2019-01-14T02:02:38.792Z,5.56
2019-01-14T02:07:48.383Z,5.63
2019-01-14T02:12:54.853Z,5.57
2019-01-14T02:18:01.943Z,5.85
2019-01-14T02:23:09.336Z,5.75
2019-01-14T02:28:15.831Z,5.91
2019-01-14T02:33:25.768Z,5.76
2019-01-14T02:38:33.413Z,5.64
2019-01-14T02:43:40.110Z,5.86
2019-01-14T02:48:47.438Z,5.73
2019-01-14T02:53:54.194Z,5.80
2019-01-14T02:59:03.013Z,6.01
2019-01-14T03:04:09.521Z,5.77
2019-01-14T03:09:16.428Z,5.76
2019-01-14T03:14:22.899Z,5.95
2019-01-14T03:19:29.115Z,5.72
2019-01-14T03:24:35.132Z,5.60
2019-01-14T03:29:47.292Z,5.85
2019-01-14T03:34:55.003Z,5.59
2019-01-14T03:40:02.472Z,5.45
2019-01-14T03:45:10.532Z,5.28
2019-01-14T03:50:19.266Z,5.54
2019-01-14T03:55:25.397Z,5.16
2019-01-14T04:00:32.146Z,5.09
2019-01-14T04:05:39.059Z,5.10
2019-01-14T04:10:45.602Z,5.15
2019-01-14T04:15:52.344Z,4.96
2019-01-14T04:21:18.695Z,5.22
2019-01-14T04:26:25.733Z,4.84
2019-01-14T04:31:31.692Z,4.63
2019-01-14T04:36:41.824Z,4.52
2019-01-14T04:41:48.855Z,4.43
2019-01-14T04:46:56.370Z,4.29
2019-01-14T04:52:07.838Z,4.34
2019-01-14T04:57:14.617Z,4.40
2019-01-14T05:02:21.867Z,4.48
2019-01-14T05:07:29.751Z,4.17
2019-01-14T05:12:38.551Z,4.15
2019-01-14T05:17:46.512Z,4.20
2019-01-14T05:22:54.356Z,4.14
2019-01-14T05:28:01.491Z,4.36
2019-01-14T05:33:08.876Z,4.00
2019-01-14T05:38:15.761Z,4.26
2019-01-14T05:43:23.986Z,4.22
2019-01-14T05:48:31.612Z,4.56
2019-01-14T05:53:38.641Z,4.16
2019-01-14T05:58:46.544Z,4.19
2019-01-14T06:03:53.715Z,4.17
2019-01-14T06:09:00.887Z,4.14
2019-01-14T06:14:07.790Z,4.28
2019-01-14T06:19:13.507Z,4.39
2019-01-14T06:24:19.709Z,4.13
2019-01-14T06:29:26.931Z,3.93
2019-01-14T06:34:33.750Z,3.59
2019-01-14T06:39:39.379Z,3.64
2019-01-14T06:44:45.957Z,3.53
2019-01-14T06:49:51.934Z,3.85
2019-01-14T06:54:57.796Z,2.88
2019-01-14T07:00:05.202Z,2.91
2019-01-14T07:05:12.329Z,2.66
2019-01-14T07:10:21.604Z,2.68
2019-01-14T07:15:27.573Z,2.68
2019-01-14T07:20:33.214Z,3.07
2019-01-14T07:25:39.173Z,3.13
2019-01-14T07:30:45.054Z,3.09
2019-01-14T07:35:50.835Z,3.25
2019-01-14T07:40:56.871Z,3.34
2019-01-14T07:46:02.815Z,3.36
2019-01-14T07:51:08.674Z,3.44
2019-01-14T07:56:16.545Z,3.45
2019-01-14T08:01:22.211Z,3.67
2019-01-14T08:06:28.087Z,3.59
2019-01-14T08:11:34.704Z,3.25
2019-01-14T08:16:40.422Z,3.45
2019-01-14T08:21:46.110Z,3.62
2019-01-14T08:26:52.191Z,3.39
2019-01-14T08:31:58.012Z,3.34
2019-01-14T08:37:04.347Z,3.35
2019-01-14T08:42:10.968Z,3.38
2019-01-14T08:47:17.920Z,3.40
2019-01-14T08:52:23.752Z,3.38
2019-01-14T08:57:30.066Z,3.23
2019-01-14T09:02:36.439Z,3.42
2019-01-14T09:07:42.294Z,3.38
2019-01-14T09:12:48.274Z,3.58
2019-01-14T09:17:54.620Z,3.59
2019-01-14T09:23:00.181Z,3.48
2019-01-14T09:28:06.394Z,3.41
2019-01-14T09:33:12.909Z,3.40
2019-01-14T09:38:18.598Z,4.11
2019-01-14T09:43:24.303Z,4.07
2019-01-14T09:48:30.601Z,3.94
2019-01-14T09:53:36.239Z,4.44
2019-01-14T09:58:43.608Z,4.45
2019-01-14T10:03:49.518Z,4.64
2019-01-14T10:08:55.650Z,4.10
2019-01-14T10:14:01.439Z,4.77
2019-01-14T10:19:08.268Z,4.18
2019-01-14T10:24:14.460Z,4.11
2019-01-14T10:29:20.401Z,4.60
2019-01-14T10:34:26.057Z,4.14
2019-01-14T10:39:32.536Z,5.10
2019-01-14T10:44:38.299Z,4.92
2019-01-14T10:49:45.072Z,4.81
2019-01-14T10:54:51.043Z,4.76
2019-01-14T10:59:57.701Z,5.48
2019-01-14T11:05:04.642Z,4.93
2019-01-14T11:10:12.339Z,5.01
2019-01-14T11:15:20.079Z,5.35
2019-01-14T11:20:28.563Z,5.14
2019-01-14T11:25:34.119Z,4.70
2019-01-14T11:30:43.054Z,4.73
2019-01-14T11:35:49.519Z,4.95
2019-01-14T11:40:55.090Z,4.77
2019-01-14T11:46:01.011Z,4.48
2019-01-14T11:51:07.205Z,4.32
2019-01-14T11:56:13.515Z,4.63
2019-01-14T12:01:21.533Z,4.21
2019-01-14T12:06:27.325Z,4.03
2019-01-14T12:11:34.215Z,3.87
2019-01-14T12:16:39.942Z,4.03
2019-01-14T12:21:45.670Z,3.86
2019-01-14T12:26:54.170Z,3.91
2019-01-14T12:31:59.970Z,4.26
2019-01-14T12:37:06.077Z,3.98
2019-01-14T12:42:12.326Z,3.88
2019-01-14T12:47:17.868Z,4.10
2019-01-14T12:52:25.400Z,4.10
2019-01-14T12:57:31.215Z,3.97
2019-01-14T13:02:37.281Z,4.08
2019-01-14T13:07:42.856Z,3.94
2019-01-14T13:12:49.828Z,3.63
2019-01-14T13:17:56.394Z,3.70
2019-01-14T13:23:02.228Z,3.93
2019-01-14T13:28:07.958Z,3.71
2019-01-14T13:33:13.600Z,3.39
2019-01-14T13:38:19.867Z,3.51
2019-01-14T13:43:25.921Z,3.62
2019-01-14T13:48:32.069Z,4.06
2019-01-14T13:53:37.626Z,4.18
2019-01-14T13:58:45.603Z,3.68
2019-01-14T14:03:51.708Z,4.13
2019-01-14T14:08:58.126Z,4.28
2019-01-14T14:14:03.690Z,4.18
2019-01-14T14:19:10.218Z,3.60
2019-01-14T14:24:17.308Z,3.34
2019-01-14T14:29:23.863Z,3.17
2019-01-14T14:34:30.986Z,3.22
2019-01-14T14:39:36.606Z,3.69
2019-01-14T14:44:42.476Z,3.81
2019-01-14T14:49:48.098Z,4.17
2019-01-14T14:54:55.054Z,4.11
2019-01-14T15:00:01.647Z,3.75
2019-01-14T15:05:11.052Z,3.53
2019-01-14T15:10:18.944Z,3.67
2019-01-14T15:15:25.535Z,3.47
2019-01-14T15:20:31.228Z,3.15
2019-01-14T15:25:37.283Z,3.14
2019-01-14T15:30:43.067Z,3.15
2019-01-14T15:35:48.698Z,3.07
2019-01-14T15:40:55.114Z,3.03
2019-01-14T15:46:01.479Z,2.96
2019-01-14T15:51:07.306Z,2.99
2019-01-14T15:56:14.105Z,2.87
2019-01-14T16:01:19.742Z,2.71
2019-01-14T16:06:25.545Z,2.63
2019-01-14T16:11:31.181Z,3.25
2019-01-14T16:16:36.881Z,2.76
2019-01-14T16:21:43.127Z,2.80
2019-01-14T16:26:49.827Z,3.07
2019-01-14T16:31:55.920Z,2.70
2019-01-14T16:37:02.066Z,2.44
2019-01-14T16:42:08.358Z,2.18
2019-01-14T16:47:15.570Z,2.59
2019-01-14T16:52:22.093Z,2.30
2019-01-14T16:57:29.311Z,2.49
2019-01-14T17:02:35.343Z,2.44
2019-01-14T17:07:43.213Z,2.37
2019-01-14T17:12:49.231Z,2.47
2019-01-14T17:17:55.154Z,2.41
2019-01-14T17:23:00.710Z,2.50
2019-01-14T17:28:06.025Z,2.66
2019-01-14T17:33:12.557Z,2.14
2019-01-14T17:38:18.756Z,2.60
2019-01-14T17:43:24.019Z,2.08
2019-01-14T17:48:30.543Z,2.24
2019-01-14T17:53:39.829Z,2.05
2019-01-14T17:58:51.014Z,2.58
2019-01-14T18:04:17.857Z,2.42
2019-01-14T18:09:27.248Z,2.13
2019-01-14T18:14:36.316Z,2.19
2019-01-14T18:19:43.821Z,2.58
2019-01-14T18:24:51.525Z,2.19
2019-01-14T18:29:57.708Z,2.05
2019-01-14T18:35:11.879Z,2.27
2019-01-14T18:40:24.221Z,2.10
2019-01-14T18:45:30.766Z,2.07
2019-01-14T18:50:37.693Z,2.24
2019-01-14T18:55:43.518Z,2.17
2019-01-14T19:00:49.821Z,2.47
2019-01-14T19:05:56.034Z,2.14
2019-01-14T19:11:02.697Z,2.16
2019-01-14T19:16:08.730Z,2.25
2019-01-14T19:21:14.984Z,2.22
2019-01-14T19:26:20.664Z,2.30
2019-01-14T19:31:27.318Z,2.11
2019-01-14T19:36:35.209Z,2.59
2019-01-14T19:41:41.814Z,2.62
2019-01-14T19:46:47.703Z,2.46
2019-01-14T19:51:54.735Z,2.49
2019-01-14T19:57:01.011Z,2.10
2019-01-14T20:02:07.879Z,2.31
2019-01-14T20:07:14.015Z,2.08
2019-01-14T20:12:20.061Z,1.98
2019-01-14T20:17:26.214Z,2.42
2019-01-14T20:22:32.739Z,2.48
2019-01-14T20:27:38.396Z,2.82
2019-01-14T20:32:46.033Z,2.45
2019-01-14T20:37:52.808Z,2.35
2019-01-14T20:42:59.072Z,2.49
2019-01-14T20:48:06.155Z,2.41
2019-01-14T20:53:14.046Z,2.17
2019-01-14T20:58:21.928Z,2.48
2019-01-14T21:03:28.923Z,2.26
2019-01-14T21:08:35.933Z,2.38
2019-01-14T21:13:43.046Z,2.23
2019-01-14T21:18:49.336Z,2.11
2019-01-14T21:23:56.553Z,2.37
2019-01-14T21:29:02.633Z,2.26
2019-01-14T21:34:09.428Z,2.39
2019-01-14T21:39:15.456Z,2.58
2019-01-14T21:44:21.222Z,2.11
2019-01-14T21:49:28.363Z,2.39
2019-01-14T21:54:34.183Z,2.01
2019-01-14T21:59:40.125Z,1.95
2019-01-14T22:04:45.973Z,1.77
2019-01-14T22:09:53.602Z,1.97
2019-01-14T22:15:00.683Z,1.90
2019-01-14T22:20:15.049Z,1.98
2019-01-14T22:25:21.011Z,2.59
2019-01-14T22:30:30.450Z,2.02
2019-01-14T22:35:36.368Z,1.89
2019-01-14T22:40:42.427Z,1.99
2019-01-14T22:45:49.210Z,2.25
2019-01-14T22:50:54.984Z,2.50
2019-01-14T22:56:01.041Z,2.14
2019-01-14T23:01:14.227Z,2.35
2019-01-14T23:06:20.184Z,2.33
2019-01-14T23:11:28.174Z,2.16
2019-01-14T23:16:36.347Z,2.10
2019-01-14T23:21:44.579Z,2.23
2019-01-14T23:26:51.433Z,2.18
2019-01-14T23:32:00.835Z,2.49
2019-01-14T23:37:09.159Z,2.93
2019-01-14T23:42:16.396Z,2.76
2019-01-14T23:47:26.711Z,2.58
2019-01-14T23:52:34.343Z,2.89
2019-01-14T23:57:48.157Z,2.84
